Main page
METAR-TAF:

METAR-TAF

Airports :

Riverton Regional Airport

Riverton, Wyoming, United States

latitude: 43-03-43N, longitude: 108-26-47W, elevation: 5524 ft

Current weather observation

The report was made 45 minutes ago, at 19:53 UTC
Wind 5 mph from variable directions
Temperature 54°F
Humidity 40%
Pressure 30.27 in. Hg
Visibility: 10 miles
Clear sky

METAR: KRIW 281953Z AUTO VRB04KT 10SM CLR 12/M01 A3027 RMK AO2 SLP240 T01171006

Time: 14:38 (20:38 UTC)

Forecast

The report was made 3 hours and 18 minutes ago, at 17:20 UTC
Forecast valid from 28 at 18 UTC to 29 at 18 UTC
Wind 7 mph from variable directions
Visibility: 6 miles
Clear sky
From 29 at 0000 UTC
Wind 9 mph from the West/Northwest
Visibility: 6 miles
Clear sky

TAF: KRIW 281720Z 2818/2918 VRB06KT P6SM SKC FM290000 29008KT P6SM SKC

Weather observations and forecasts of more than 4000 airports (METAR and TAF reports).

The available stations are represented by yellow and red dots on the map.

Hover mouse over dot to see the name of the station.

Then click to see weather observations and forecasts.

To change the map : click on the green buttons with a black cross to zoom in, on the green button with a dash to zoom out, or on the green arrows for adjacent maps.


METAR-TAF: